createdAt,value
2022-10-06T05:26:28.771Z,101744.53
2022-10-06T05:29:37.619Z,101745.81
2022-10-06T05:32:50.844Z,101754.06
2022-10-06T05:36:23.225Z,101753.19
2022-10-06T05:39:28.388Z,101753.44
2022-10-06T05:42:32.587Z,101757.75
2022-10-06T05:45:36.202Z,101769.63
2022-10-06T05:48:55.666Z,101777.94
2022-10-06T05:55:47.554Z,101765.19
2022-10-06T05:58:53.439Z,101765.37
2022-10-06T06:02:04.880Z,101761.03
2022-10-06T06:05:34.516Z,101773.72
2022-10-06T06:08:42.451Z,101772.00
2022-10-06T06:11:48.809Z,101769.72
2022-10-06T06:15:13.717Z,101778.28
2022-10-06T06:18:25.178Z,101785.13
2022-10-06T06:22:53.615Z,101786.00
2022-10-06T06:34:30.239Z,101801.78
2022-10-06T06:37:34.197Z,101813.97
2022-10-06T06:40:55.757Z,101812.16
2022-10-06T06:44:17.819Z,101814.94
2022-10-06T06:47:35.854Z,101820.63
2022-10-06T06:50:43.897Z,101817.13
2022-10-06T06:53:55.351Z,101813.44
2022-10-06T06:57:09.901Z,101817.28
2022-10-06T07:00:18.520Z,101818.72
2022-10-06T07:07:43.430Z,101828.19
2022-10-06T07:10:57.578Z,101823.13
2022-10-06T07:14:06.763Z,101829.72
2022-10-06T07:17:35.459Z,101825.06
2022-10-06T07:20:58.419Z,101816.75
2022-10-06T07:24:31.322Z,101831.41
2022-10-06T07:28:02.668Z,101836.22
2022-10-06T07:35:26.598Z,101840.72
2022-10-06T07:38:58.033Z,101846.19
2022-10-06T07:42:11.040Z,101843.59
2022-10-06T07:45:51.443Z,101844.53
2022-10-06T07:49:11.122Z,101843.28
2022-10-06T07:52:50.476Z,101851.38
2022-10-06T07:55:53.938Z,101837.28
2022-10-06T07:59:07.994Z,101858.16
2022-10-06T08:02:23.709Z,101852.44
2022-10-06T08:05:27.907Z,101862.94
2022-10-06T08:08:50.225Z,101865.28
2022-10-06T08:12:37.451Z,101857.78
2022-10-06T08:15:40.558Z,101856.44
2022-10-06T08:19:25.545Z,101859.69
2022-10-06T08:22:31.158Z,101843.16
2022-10-06T08:25:42.654Z,101847.50
2022-10-06T08:28:52.527Z,101848.19
2022-10-06T08:32:01.121Z,101850.94
2022-10-06T08:35:40.741Z,101856.72
2022-10-06T08:38:50.603Z,101805.09
2022-10-06T08:42:00.801Z,101844.81
2022-10-06T08:45:24.332Z,101849.22
2022-10-06T08:48:39.853Z,101843.06
2022-10-06T08:52:03.058Z,101842.28
2022-10-06T08:55:30.925Z,101840.19
2022-10-06T08:58:40.720Z,101848.13
2022-10-06T09:01:48.044Z,101847.31
2022-10-06T09:04:56.518Z,101849.66
2022-10-06T09:07:59.618Z,101862.00
2022-10-06T09:11:03.788Z,101854.69
2022-10-06T09:14:14.995Z,101859.59
2022-10-06T09:17:28.368Z,101862.12
2022-10-06T09:20:44.491Z,101862.66
2022-10-06T09:24:05.388Z,101859.41
2022-10-06T09:27:28.397Z,101853.69
2022-10-06T09:30:31.475Z,101849.31
2022-10-06T09:33:40.094Z,101838.38
2022-10-06T09:37:09.366Z,101847.88
2022-10-06T09:40:36.777Z,101859.47
2022-10-06T09:43:41.366Z,101860.31
2022-10-06T09:46:44.368Z,101858.62
2022-10-06T09:50:14.358Z,101848.25
2022-10-06T09:53:21.772Z,101851.63
2022-10-06T09:56:28.535Z,101852.59
2022-10-06T09:59:39.958Z,101864.31
2022-10-06T10:02:45.229Z,101860.47
2022-10-06T10:05:57.090Z,101857.50
2022-10-06T10:09:28.379Z,101864.69
2022-10-06T10:12:34.430Z,101864.84
2022-10-06T10:15:54.506Z,101859.81
2022-10-06T10:19:18.796Z,101854.84
2022-10-06T10:22:37.976Z,101847.66
2022-10-06T10:26:02.405Z,101847.94
2022-10-06T10:29:20.650Z,101845.56
2022-10-06T10:33:13.116Z,101841.94
2022-10-06T10:36:24.135Z,101843.63
2022-10-06T10:39:33.831Z,101835.47
2022-10-06T10:43:00.526Z,101838.59
2022-10-06T10:46:27.559Z,101832.63
2022-10-06T10:49:33.579Z,101839.47
2022-10-06T10:52:42.710Z,101838.56
2022-10-06T10:55:49.219Z,101841.88
2022-10-06T10:59:27.865Z,101838.25
2022-10-06T11:02:31.072Z,101843.41
2022-10-06T11:05:52.937Z,101845.66
2022-10-06T11:09:05.487Z,101827.88
2022-10-06T11:12:38.481Z,101828.06
2022-10-06T11:16:09.011Z,101827.50
2022-10-06T11:19:24.212Z,101829.03
2022-10-06T11:23:16.184Z,101837.72
2022-10-06T11:27:08.429Z,101832.47
2022-10-06T11:30:21.443Z,101837.25
2022-10-06T11:33:37.432Z,101829.13
2022-10-06T11:37:25.247Z,101826.22
2022-10-06T11:41:10.251Z,101818.22
2022-10-06T11:44:24.626Z,101820.44
2022-10-06T11:47:39.758Z,101809.84
2022-10-06T11:50:44.787Z,101800.81
2022-10-06T11:53:58.889Z,101818.19
2022-10-06T11:57:31.553Z,101811.69
2022-10-06T12:00:35.402Z,101817.72
2022-10-06T12:03:50.525Z,101805.91
2022-10-06T12:06:56.064Z,101807.28
2022-10-06T12:10:33.651Z,101800.16
2022-10-06T12:14:44.604Z,101783.75
2022-10-06T12:17:33.451Z,101796.06
2022-10-06T12:20:59.520Z,101797.28
2022-10-06T12:24:31.271Z,101799.03
2022-10-06T12:27:43.196Z,101797.19
2022-10-06T12:31:18.960Z,101797.28
2022-10-06T12:35:20.180Z,101792.84
2022-10-06T12:38:37.792Z,101787.78
2022-10-06T12:45:46.276Z,101783.44
2022-10-06T12:48:53.425Z,101778.22
2022-10-06T12:52:44.847Z,101779.13
2022-10-06T12:56:12.016Z,101768.13
2022-10-06T12:59:41.135Z,101768.22
2022-10-06T13:03:18.043Z,101762.22
2022-10-06T13:06:35.317Z,101771.97
2022-10-06T13:10:01.496Z,101771.00
2022-10-06T13:13:30.314Z,101772.69
2022-10-06T13:17:14.463Z,101766.59
2022-10-06T13:21:01.903Z,101759.28
2022-10-06T13:24:50.763Z,101760.94
2022-10-06T13:36:31.971Z,101757.91
2022-10-06T13:39:43.527Z,101755.22
2022-10-06T13:42:49.673Z,101757.72
2022-10-06T13:46:09.032Z,101743.47
2022-10-06T13:49:34.081Z,101747.84
2022-10-06T13:52:55.496Z,101745.16
2022-10-06T13:56:00.216Z,101748.41
2022-10-06T13:59:32.605Z,101753.56
2022-10-06T14:02:43.892Z,101749.94
2022-10-06T14:05:47.873Z,101747.28
2022-10-06T14:08:55.538Z,101741.94
2022-10-06T14:12:08.501Z,101750.00
2022-10-06T14:15:30.614Z,101752.13
2022-10-06T14:18:43.208Z,101750.44
2022-10-06T14:21:51.797Z,101752.22
2022-10-06T14:24:56.454Z,101754.81
2022-10-06T14:28:06.651Z,101754.78
2022-10-06T14:31:20.781Z,101753.84
2022-10-06T14:34:31.621Z,101753.59
2022-10-06T14:37:43.383Z,101761.38
2022-10-06T14:40:49.971Z,101759.47
2022-10-06T14:44:05.763Z,101759.37
2022-10-06T14:47:10.103Z,101766.34
2022-10-06T14:50:22.722Z,101766.19
2022-10-06T14:53:36.238Z,101766.09
2022-10-06T14:56:40.811Z,101767.66
2022-10-06T14:59:52.469Z,101772.87
2022-10-06T15:02:56.899Z,101762.97
2022-10-06T15:06:24.549Z,101772.59
2022-10-06T15:09:31.065Z,101770.72
2022-10-06T15:12:35.697Z,101767.59
2022-10-06T15:15:39.682Z,101765.63
2022-10-06T15:18:45.880Z,101773.38
2022-10-06T15:21:51.789Z,101773.00
2022-10-06T15:24:56.724Z,101779.78
2022-10-06T15:28:22.833Z,101773.25
2022-10-06T15:31:36.770Z,101773.81
2022-10-06T15:34:58.640Z,101785.81
2022-10-06T15:38:15.773Z,101793.56
2022-10-06T15:41:22.717Z,101790.72
2022-10-06T15:44:26.072Z,101804.62
2022-10-06T15:47:37.585Z,101806.22
2022-10-06T15:50:43.501Z,101803.34
2022-10-06T15:54:09.381Z,101805.00
2022-10-06T15:57:29.049Z,101800.38
2022-10-06T16:00:48.625Z,101821.50
2022-10-06T16:04:09.082Z,101799.16
2022-10-06T16:07:21.635Z,101817.84
2022-10-06T16:10:45.453Z,101824.72
2022-10-06T16:13:55.240Z,101825.56
2022-10-06T16:17:11.573Z,101828.03
2022-10-06T16:20:22.623Z,101833.06
2022-10-06T16:23:32.632Z,101828.44
2022-10-06T16:26:43.840Z,101844.13
2022-10-06T16:38:50.583Z,101840.81
2022-10-06T16:41:56.481Z,101844.03
2022-10-06T16:45:12.518Z,101850.97
2022-10-06T16:48:49.456Z,101848.09
2022-10-06T16:52:21.514Z,101857.72
2022-10-06T16:56:11.228Z,101853.13
2022-10-06T16:59:29.517Z,101864.66
2022-10-06T17:02:34.150Z,101863.47
2022-10-06T17:05:48.773Z,101859.94
2022-10-06T17:08:56.823Z,101867.00
2022-10-06T17:12:12.256Z,101880.09
2022-10-06T17:15:20.590Z,101876.50
2022-10-06T17:19:14.064Z,101885.25
2022-10-06T17:23:01.448Z,101865.38
2022-10-06T17:26:06.865Z,101884.66
2022-10-06T17:29:18.948Z,101892.41
2022-10-06T17:32:33.583Z,101894.87
2022-10-06T17:35:42.992Z,101897.31
2022-10-06T17:39:00.378Z,101892.59
2022-10-06T17:42:44.956Z,101890.59
2022-10-06T17:46:18.764Z,101896.56
2022-10-06T17:49:38.286Z,101893.69
2022-10-06T17:52:58.150Z,101883.72
2022-10-06T17:56:24.394Z,101873.78
2022-10-06T17:59:36.586Z,101879.78
2022-10-06T18:06:38.640Z,101882.59
2022-10-06T18:10:04.834Z,101880.75
2022-10-06T18:13:27.189Z,101875.38
2022-10-06T18:16:55.957Z,101878.06
2022-10-06T18:20:11.617Z,101885.84
2022-10-06T18:23:24.799Z,101885.62
2022-10-06T18:27:16.990Z,101889.84
2022-10-06T18:44:09.523Z,101904.16
2022-10-06T18:48:03.853Z,101910.97
2022-10-06T18:51:27.260Z,101916.53
2022-10-06T19:03:40.763Z,101925.75
2022-10-06T19:12:28.353Z,101920.53
2022-10-06T19:16:17.312Z,101924.56
2022-10-06T19:36:39.510Z,101906.72
2022-10-06T19:39:50.319Z,101924.38
2022-10-06T19:47:08.295Z,101932.13
2022-10-06T19:50:26.813Z,101931.34
2022-10-06T19:53:36.929Z,101933.66
2022-10-06T19:56:42.700Z,101933.72
2022-10-06T19:59:51.608Z,101936.47
2022-10-06T20:03:00.132Z,101944.47
2022-10-06T20:06:09.409Z,101945.37
2022-10-06T20:09:16.855Z,101935.37
2022-10-06T20:13:12.587Z,101948.00
2022-10-06T20:16:24.543Z,101934.44
2022-10-06T20:19:31.549Z,101948.87
2022-10-06T20:22:48.220Z,101947.16
